CheckWX is a tool to help pilots better visualize weather data.  It is not intended as a substitute for an official pre-flight weather briefing.

02:12:07 UTC

KTME METAR
Houston Executive Airport
Houston, Texas, USA
Current

17 mins ago

KTME 180155Z AUTO 02009KT 10SM FEW055 10/07 A2997 RMK AO2
Observed
Feb-18 @ 01:55 UTC
Wind
  • 020° at 9 KTS
Visibility
10 SM
Flight Rules
VFR
Cloud Levels
  • Few at 5,500' AGL
Temperature
10°C / 50°F
Dewpoint
C / 45°F
Humidity
82%
Altimeter
29.97" Hg
Pressure
1014.92 hPa
Previous

37 mins ago

KTME 180135Z AUTO 02008KT 10SM FEW055 10/07 A2996 RMK AO2
Observed
Feb-18 @ 01:35 UTC
Wind
  • 020° at 8 KTS
Visibility
10 SM
Flight Rules
VFR
Cloud Levels
  • Few at 5,500' AGL
Temperature
10°C / 50°F
Dewpoint
C / 45°F
Humidity
82%
Altimeter
29.96" Hg
Pressure
1014.52 hPa
Previous

57 mins ago

KTME 180115Z AUTO 02007KT 10SM SCT055 10/07 A2995 RMK AO2
Observed
Feb-18 @ 01:15 UTC
Wind
  • 020° at 7 KTS
Visibility
10 SM
Flight Rules
VFR
Cloud Levels
  • Scattered at 5,500' AGL
Temperature
10°C / 50°F
Dewpoint
C / 45°F
Humidity
82%
Altimeter
29.95" Hg
Pressure
1014.22 hPa